createdAt,value
2018-03-06T00:00:01.539Z,99211
2018-03-06T00:02:29.689Z,99207
2018-03-06T00:04:57.839Z,99217
2018-03-06T00:07:26.006Z,99208
2018-03-06T00:09:54.159Z,99206
2018-03-06T00:12:22.344Z,99209
2018-03-06T00:14:51.261Z,99209
2018-03-06T00:17:19.462Z,99202
2018-03-06T00:19:47.650Z,99203
2018-03-06T00:22:15.810Z,99198
2018-03-06T00:24:43.959Z,99191
2018-03-06T00:27:12.134Z,99186
2018-03-06T00:29:40.285Z,99186
2018-03-06T00:32:08.439Z,99182
2018-03-06T00:34:37.369Z,99176
2018-03-06T00:37:05.545Z,99181
2018-03-06T00:39:33.741Z,99173
2018-03-06T00:42:01.889Z,99174
2018-03-06T00:44:30.062Z,99172
2018-03-06T00:46:58.215Z,99169
2018-03-06T00:49:26.390Z,99162
2018-03-06T00:51:54.542Z,99164
2018-03-06T00:54:23.459Z,99177
2018-03-06T00:56:51.621Z,99158
2018-03-06T00:59:19.794Z,99161
2018-03-06T01:01:47.938Z,99157
2018-03-06T01:04:16.109Z,99163
2018-03-06T01:06:44.257Z,99157
2018-03-06T01:09:12.401Z,99159
2018-03-06T01:11:40.702Z,99146
2018-03-06T01:14:08.850Z,99157
2018-03-06T01:16:36.995Z,99155
2018-03-06T01:19:05.959Z,99147
2018-03-06T01:21:34.105Z,99146
2018-03-06T01:24:02.258Z,99140
2018-03-06T01:26:30.444Z,99132
2018-03-06T01:28:58.626Z,99134
2018-03-06T01:31:26.786Z,99130
2018-03-06T01:33:54.949Z,99137
2018-03-06T01:36:23.134Z,99130
2018-03-06T01:38:51.285Z,99137
2018-03-06T01:41:19.434Z,99135
2018-03-06T01:43:48.399Z,99131
2018-03-06T01:46:16.547Z,99122
2018-03-06T01:48:44.698Z,99128
2018-03-06T01:51:12.866Z,99132
2018-03-06T01:53:41.025Z,99129
2018-03-06T01:56:09.202Z,99136
2018-03-06T01:58:37.356Z,99114
2018-03-06T02:01:06.271Z,99125
2018-03-06T02:03:34.454Z,99119
2018-03-06T02:06:02.605Z,99113
2018-03-06T02:08:30.760Z,99116
2018-03-06T02:10:59.698Z,99115
2018-03-06T02:13:27.871Z,99109
2018-03-06T02:15:56.022Z,99112
2018-03-06T02:18:24.191Z,99104
2018-03-06T02:20:52.486Z,99101
2018-03-06T02:23:20.638Z,99107
2018-03-06T02:25:48.956Z,99097
2018-03-06T02:28:17.132Z,99088
2018-03-06T02:30:45.294Z,99088
2018-03-06T02:33:13.579Z,99080
2018-03-06T02:35:42.554Z,99078
2018-03-06T02:38:10.710Z,99082
2018-03-06T02:40:38.899Z,99081
2018-03-06T02:43:07.054Z,99077
2018-03-06T02:45:35.206Z,99075
2018-03-06T02:48:04.172Z,99080
2018-03-06T02:50:32.321Z,99070
2018-03-06T02:53:00.478Z,99073
2018-03-06T02:55:28.641Z,99064
2018-03-06T02:57:57.577Z,99067
2018-03-06T03:00:25.751Z,99067
2018-03-06T03:02:53.910Z,99067
2018-03-06T03:05:22.059Z,99067
2018-03-06T03:07:50.235Z,99067
2018-03-06T03:10:18.429Z,99064
2018-03-06T03:12:46.596Z,99068
2018-03-06T03:15:14.770Z,99061
2018-03-06T03:17:42.921Z,99062
2018-03-06T03:20:11.631Z,99067
2018-03-06T03:22:39.791Z,99072
2018-03-06T03:25:08.074Z,99065
2018-03-06T03:27:36.966Z,99052
2018-03-06T03:30:05.137Z,99056
2018-03-06T03:32:34.127Z,99062
2018-03-06T03:35:02.296Z,99060
2018-03-06T03:37:30.455Z,99056
2018-03-06T03:39:58.633Z,99055
2018-03-06T03:42:27.411Z,99053
2018-03-06T03:44:55.566Z,99053
2018-03-06T03:47:23.749Z,99043
2018-03-06T03:49:51.907Z,99048
2018-03-06T03:52:20.063Z,99040
2018-03-06T03:54:48.996Z,99036
2018-03-06T03:57:17.146Z,99028
2018-03-06T03:59:45.315Z,99041
2018-03-06T04:02:14.234Z,99030
2018-03-06T04:04:42.406Z,99034
2018-03-06T04:07:10.545Z,99032
2018-03-06T04:09:39.486Z,99027
2018-03-06T04:12:07.658Z,99034
2018-03-06T04:14:35.802Z,99030
2018-03-06T04:17:03.961Z,99026
2018-03-06T04:19:32.114Z,99023
2018-03-06T04:22:01.070Z,99011
2018-03-06T04:24:29.226Z,99030
2018-03-06T04:26:57.375Z,99028
2018-03-06T04:29:25.551Z,99018
2018-03-06T04:31:53.710Z,99019
2018-03-06T04:34:22.629Z,99019
2018-03-06T04:36:50.810Z,99014
2018-03-06T04:39:18.958Z,99017
2018-03-06T04:41:47.115Z,99011
2018-03-06T04:44:16.061Z,99013
2018-03-06T04:46:44.286Z,99007
2018-03-06T04:49:12.444Z,99009
2018-03-06T04:51:40.639Z,98995
2018-03-06T04:54:08.778Z,99008
2018-03-06T04:56:36.948Z,99014
2018-03-06T04:59:05.131Z,99011
2018-03-06T05:01:34.080Z,99006
2018-03-06T05:04:02.201Z,99003
2018-03-06T05:06:31.251Z,99006
2018-03-06T05:08:59.419Z,99009
2018-03-06T05:11:27.586Z,99006
2018-03-06T05:13:56.311Z,99004
2018-03-06T05:16:24.470Z,98999
2018-03-06T05:18:52.727Z,98997
2018-03-06T05:21:20.902Z,98995
2018-03-06T05:23:49.057Z,98997
2018-03-06T05:26:17.366Z,98997
2018-03-06T05:28:45.526Z,98994
2018-03-06T05:31:13.681Z,98992
2018-03-06T05:33:41.865Z,99001
2018-03-06T05:36:10.025Z,98991
2018-03-06T05:38:38.175Z,98988
2018-03-06T05:41:06.354Z,98996
2018-03-06T05:43:34.523Z,98999
2018-03-06T05:46:03.482Z,98992
2018-03-06T05:48:31.666Z,98982
2018-03-06T05:51:00.580Z,98995
2018-03-06T05:53:28.726Z,98994
2018-03-06T05:55:57.686Z,98992
2018-03-06T05:58:25.850Z,99002
2018-03-06T06:00:54.066Z,98992
2018-03-06T06:03:22.257Z,98992
2018-03-06T06:05:50.414Z,98986
2018-03-06T06:08:19.339Z,98989
2018-03-06T06:10:47.525Z,99002
2018-03-06T06:13:15.704Z,98996
2018-03-06T06:15:43.843Z,98998
2018-03-06T06:18:12.762Z,98995
2018-03-06T06:20:40.906Z,99004
2018-03-06T06:23:09.802Z,99004
2018-03-06T06:25:38.839Z,98994
2018-03-06T06:28:06.981Z,99004
2018-03-06T06:30:35.171Z,99004
2018-03-06T06:33:03.355Z,99002
2018-03-06T06:35:31.549Z,98997
2018-03-06T06:37:59.849Z,99003
2018-03-06T06:40:28.782Z,99000
2018-03-06T06:42:56.955Z,99000
2018-03-06T06:45:25.082Z,99002
2018-03-06T06:47:53.229Z,99000
2018-03-06T06:50:21.394Z,99001
2018-03-06T06:52:49.536Z,99009
2018-03-06T06:55:17.694Z,98996
2018-03-06T06:57:45.823Z,98985
2018-03-06T07:00:13.979Z,98994
2018-03-06T07:02:42.142Z,98986
2018-03-06T07:05:10.273Z,98983
2018-03-06T07:07:39.186Z,98984
2018-03-06T07:10:08.018Z,98984
2018-03-06T07:12:36.171Z,98978
2018-03-06T07:15:04.429Z,98990
2018-03-06T07:17:32.831Z,98986
2018-03-06T07:20:00.966Z,98981
2018-03-06T07:22:29.118Z,98983
2018-03-06T07:24:58.054Z,98981
2018-03-06T07:27:26.186Z,98991
2018-03-06T07:29:55.107Z,98991
2018-03-06T07:32:23.245Z,98987
2018-03-06T07:34:52.175Z,98991
2018-03-06T07:37:20.327Z,98997
2018-03-06T07:39:48.459Z,98994
2018-03-06T07:42:16.612Z,98995
2018-03-06T07:44:44.743Z,98991
2018-03-06T07:47:12.935Z,98999
2018-03-06T07:49:41.085Z,98994
2018-03-06T07:52:09.221Z,98989
2018-03-06T07:54:37.377Z,99000
2018-03-06T07:57:05.514Z,98990
2018-03-06T07:59:33.653Z,98982
2018-03-06T08:02:02.561Z,98987
2018-03-06T08:04:31.630Z,98986
2018-03-06T08:06:59.798Z,98982
2018-03-06T08:09:27.937Z,98988
2018-03-06T08:11:56.070Z,98973
2018-03-06T08:14:24.622Z,98974
2018-03-06T08:16:52.762Z,98973
2018-03-06T08:19:20.927Z,98974
2018-03-06T08:21:49.063Z,98968
2018-03-06T08:24:17.202Z,98977
2018-03-06T08:26:45.424Z,98982
2018-03-06T08:29:13.557Z,98969
2018-03-06T08:31:41.713Z,98961
2018-03-06T08:34:09.842Z,98966
2018-03-06T08:36:38.003Z,98971
2018-03-06T08:39:06.138Z,98973
2018-03-06T08:41:34.300Z,98970
2018-03-06T08:44:02.548Z,98978
2018-03-06T08:46:30.688Z,98980
2018-03-06T08:48:59.422Z,98976
2018-03-06T08:51:27.823Z,98977
2018-03-06T08:53:55.999Z,98975
2018-03-06T08:56:24.231Z,98976
2018-03-06T08:58:52.366Z,98971
2018-03-06T09:01:21.306Z,98973
2018-03-06T09:03:49.446Z,98967
2018-03-06T09:06:17.585Z,98971
2018-03-06T09:08:45.818Z,98965
2018-03-06T09:11:13.961Z,98963
2018-03-06T09:13:42.099Z,98968
2018-03-06T09:16:10.275Z,98968
2018-03-06T09:18:38.416Z,98967
2018-03-06T09:21:06.557Z,98964
2018-03-06T09:23:34.718Z,98969
2018-03-06T09:26:02.878Z,98967
2018-03-06T09:28:32.157Z,98959
2018-03-06T09:31:00.322Z,98951
2018-03-06T09:33:28.462Z,98953
2018-03-06T09:35:56.610Z,98953
2018-03-06T09:38:24.766Z,98954
2018-03-06T09:40:53.678Z,98953
2018-03-06T09:43:21.854Z,98948
2018-03-06T09:45:50.164Z,98948
2018-03-06T09:48:18.315Z,98950
2018-03-06T09:50:46.479Z,98947
2018-03-06T09:53:14.622Z,98944
2018-03-06T09:55:43.703Z,98942
2018-03-06T09:58:11.889Z,98942
2018-03-06T10:00:40.802Z,98941
2018-03-06T10:03:08.946Z,98943
2018-03-06T10:05:37.115Z,98934
2018-03-06T10:08:05.270Z,98936
2018-03-06T10:10:33.409Z,98933
2018-03-06T10:13:01.574Z,98940
2018-03-06T10:15:29.717Z,98931
2018-03-06T10:17:58.630Z,98926
2018-03-06T10:20:26.820Z,98918
2018-03-06T10:22:54.970Z,98925
2018-03-06T10:25:23.117Z,98928
2018-03-06T10:27:51.274Z,98919
2018-03-06T10:30:19.414Z,98912
2018-03-06T10:32:48.329Z,98911
2018-03-06T10:35:16.516Z,98910
2018-03-06T10:37:44.691Z,98906
2018-03-06T10:40:13.026Z,98902
2018-03-06T10:42:41.166Z,98905
2018-03-06T10:45:10.078Z,98899
2018-03-06T10:47:38.298Z,98908
2018-03-06T10:50:06.467Z,98895
2018-03-06T10:52:34.610Z,98895
2018-03-06T10:55:02.757Z,98899
2018-03-06T10:57:30.912Z,98889
2018-03-06T10:59:59.835Z,98891
2018-03-06T11:02:31.393Z,98893
2018-03-06T11:04:59.563Z,98889
2018-03-06T11:07:27.714Z,98884
2018-03-06T11:09:55.897Z,98878
2018-03-06T11:12:24.065Z,98876
2018-03-06T11:14:52.215Z,98884
2018-03-06T11:17:21.189Z,98869
2018-03-06T11:19:49.371Z,98872
2018-03-06T11:22:17.526Z,98867
2018-03-06T11:24:45.710Z,98865
2018-03-06T11:27:13.858Z,98857
2018-03-06T11:29:42.129Z,98859
2018-03-06T11:32:10.286Z,98853
2018-03-06T11:34:38.430Z,98855
2018-03-06T11:37:07.358Z,98850
2018-03-06T11:39:35.510Z,98853
2018-03-06T11:42:03.651Z,98851
2018-03-06T11:44:32.597Z,98846
2018-03-06T11:47:00.770Z,98846
2018-03-06T11:49:28.928Z,98843
2018-03-06T11:51:57.080Z,98841
2018-03-06T11:54:25.246Z,98831
2018-03-06T11:56:54.154Z,98831
2018-03-06T11:59:22.293Z,98838
2018-03-06T12:01:51.234Z,98829
2018-03-06T12:04:19.379Z,98836
2018-03-06T12:06:47.551Z,98835
2018-03-06T12:09:15.854Z,98823
2018-03-06T12:11:43.993Z,98825
2018-03-06T12:14:13.623Z,98826
2018-03-06T12:16:41.788Z,98824
2018-03-06T12:19:09.934Z,98826
2018-03-06T12:21:38.854Z,98815
2018-03-06T12:24:07.028Z,98820
2018-03-06T12:26:35.166Z,98820
2018-03-06T12:29:04.116Z,98803
2018-03-06T12:31:32.257Z,98809
2018-03-06T12:34:00.414Z,98810
2018-03-06T12:36:29.384Z,98804
2018-03-06T12:38:57.529Z,98795
2018-03-06T12:41:25.674Z,98800
2018-03-06T12:43:53.842Z,98796
2018-03-06T12:46:21.989Z,98798
2018-03-06T12:48:50.934Z,98797
2018-03-06T12:51:19.087Z,98797
2018-03-06T12:53:47.238Z,98792
2018-03-06T12:56:15.413Z,98791
2018-03-06T12:58:43.575Z,98783
2018-03-06T13:01:11.722Z,98785
2018-03-06T13:03:39.902Z,98774
2018-03-06T13:06:08.055Z,98783
2018-03-06T13:08:36.190Z,98776
2018-03-06T13:11:04.364Z,98778
2018-03-06T13:13:32.505Z,98769
2018-03-06T13:16:00.650Z,98768
2018-03-06T13:18:28.801Z,98769
2018-03-06T13:20:56.946Z,98765
2018-03-06T13:23:25.118Z,98763
2018-03-06T13:25:53.264Z,98772
2018-03-06T13:28:22.603Z,98773
2018-03-06T13:30:50.785Z,98760
2018-03-06T13:33:18.925Z,98767
2018-03-06T13:35:47.091Z,98775
2018-03-06T13:38:15.269Z,98769
2018-03-06T13:40:43.422Z,98765
2018-03-06T13:43:12.336Z,98771
2018-03-06T13:45:40.543Z,98762
2018-03-06T13:48:08.700Z,98765
2018-03-06T13:50:36.913Z,98764
2018-03-06T13:53:05.085Z,98765
2018-03-06T13:55:33.246Z,98765
2018-03-06T13:58:01.459Z,98761
2018-03-06T14:00:29.643Z,98761
2018-03-06T14:02:57.792Z,98759
2018-03-06T14:05:26.710Z,98749
2018-03-06T14:07:55.010Z,98751
2018-03-06T14:10:23.156Z,98759
2018-03-06T14:12:51.347Z,98760
2018-03-06T14:15:19.497Z,98753
2018-03-06T14:17:47.642Z,98757
2018-03-06T14:20:15.879Z,98766
2018-03-06T14:22:44.028Z,98757
2018-03-06T14:25:12.171Z,98755
2018-03-06T14:27:41.099Z,98753
2018-03-06T14:30:09.270Z,98753
2018-03-06T14:32:37.488Z,98750
2018-03-06T14:35:05.618Z,98755
2018-03-06T14:37:33.814Z,98749
2018-03-06T14:40:01.962Z,98753
2018-03-06T14:42:30.140Z,98739
2018-03-06T14:44:58.322Z,98742
2018-03-06T14:47:26.476Z,98746
2018-03-06T14:49:54.626Z,98754
2018-03-06T14:52:23.894Z,98741
2018-03-06T14:54:52.039Z,98745
2018-03-06T14:57:20.182Z,98745
2018-03-06T14:59:48.352Z,98746
2018-03-06T15:02:16.501Z,98736
2018-03-06T15:04:45.492Z,98744
2018-03-06T15:07:13.668Z,98741
2018-03-06T15:09:42.741Z,98743
2018-03-06T15:12:10.901Z,98738
2018-03-06T15:14:39.489Z,98745
2018-03-06T15:17:08.510Z,98740
2018-03-06T15:19:37.558Z,98736
2018-03-06T15:22:05.861Z,98733
2018-03-06T15:24:34.202Z,98738
2018-03-06T15:27:02.340Z,98735
2018-03-06T15:29:31.269Z,98736
2018-03-06T15:31:59.556Z,98735
2018-03-06T15:34:27.735Z,98738
2018-03-06T15:36:55.879Z,98736
2018-03-06T15:39:24.947Z,98738
2018-03-06T15:41:53.934Z,98748
2018-03-06T15:44:22.880Z,98737
2018-03-06T15:46:51.059Z,98742
2018-03-06T15:49:19.267Z,98747
2018-03-06T15:51:48.222Z,98752
2018-03-06T15:54:16.426Z,98753
2018-03-06T15:56:45.403Z,98754
2018-03-06T15:59:13.682Z,98746
2018-03-06T16:01:41.855Z,98758
2018-03-06T16:04:10.052Z,98751
2018-03-06T16:06:39.004Z,98757
2018-03-06T16:09:07.204Z,98771
2018-03-06T16:11:36.168Z,98772
2018-03-06T16:14:04.383Z,98774
2018-03-06T16:16:33.319Z,98771
2018-03-06T16:19:02.825Z,98782
2018-03-06T16:21:31.175Z,98783
2018-03-06T16:23:59.346Z,98783
2018-03-06T16:26:27.811Z,98784
2018-03-06T16:28:56.790Z,98784
2018-03-06T16:31:26.067Z,98799
2018-03-06T16:33:54.265Z,98806
2018-03-06T16:36:32.665Z,98802
2018-03-06T16:39:01.716Z,98804
2018-03-06T16:41:29.997Z,98804
2018-03-06T16:43:58.185Z,98810
2018-03-06T16:46:26.646Z,98805
2018-03-06T16:48:54.814Z,98799
2018-03-06T16:51:22.992Z,98803
2018-03-06T16:53:51.941Z,98813
2018-03-06T16:56:20.875Z,98801
2018-03-06T16:58:49.096Z,98810
2018-03-06T17:01:18.063Z,98812
2018-03-06T17:03:46.236Z,98804
2018-03-06T17:06:14.420Z,98808
2018-03-06T17:08:42.603Z,98810
2018-03-06T17:11:11.560Z,98813
2018-03-06T17:13:40.583Z,98813
2018-03-06T17:16:08.814Z,98813
2018-03-06T17:18:36.972Z,98821
2018-03-06T17:21:05.184Z,98809
2018-03-06T17:23:33.357Z,98815
2018-03-06T17:26:01.667Z,98817
2018-03-06T17:28:30.666Z,98815
2018-03-06T17:31:00.348Z,98814
2018-03-06T17:33:28.543Z,98820
2018-03-06T17:35:57.501Z,98826
2018-03-06T17:38:25.687Z,98826
2018-03-06T17:40:53.966Z,98820
2018-03-06T17:43:22.145Z,98824
2018-03-06T17:45:50.318Z,98820
2018-03-06T17:48:18.511Z,98826
2018-03-06T17:50:47.455Z,98818
2018-03-06T17:53:15.621Z,98819
2018-03-06T17:55:43.819Z,98818
2018-03-06T17:58:13.899Z,98827
2018-03-06T18:00:42.088Z,98813
2018-03-06T18:03:10.275Z,98812
2018-03-06T18:05:38.455Z,98821
2018-03-06T18:08:06.663Z,98820
2018-03-06T18:10:38.596Z,98818
2018-03-06T18:13:06.786Z,98810
2018-03-06T18:15:35.764Z,98809
2018-03-06T18:18:03.939Z,98808
2018-03-06T18:20:32.890Z,98807
2018-03-06T18:23:01.230Z,98809
2018-03-06T18:25:29.400Z,98812
2018-03-06T18:27:57.980Z,98803
2018-03-06T18:30:26.947Z,98802
2018-03-06T18:32:55.931Z,98794
2018-03-06T18:35:24.891Z,98801
2018-03-06T18:37:53.095Z,98804
2018-03-06T18:40:21.271Z,98800
2018-03-06T18:42:49.471Z,98801
2018-03-06T18:45:18.467Z,98787
2018-03-06T18:47:47.416Z,98783
2018-03-06T18:50:33.617Z,98784
2018-03-06T18:53:01.831Z,98784
2018-03-06T18:55:30.048Z,98794
2018-03-06T18:57:58.224Z,98788
2018-03-06T19:01:01.901Z,98784
2018-03-06T19:03:47.915Z,98765
2018-03-06T19:06:24.494Z,98770
2018-03-06T19:08:52.695Z,98773
2018-03-06T19:11:20.884Z,98776
2018-03-06T19:13:49.092Z,98771
2018-03-06T19:16:17.296Z,98771
2018-03-06T19:18:45.460Z,98766
2018-03-06T19:21:13.655Z,98776
2018-03-06T19:23:41.828Z,98762
2018-03-06T19:26:10.004Z,98762
2018-03-06T19:28:38.190Z,98760
2018-03-06T19:31:07.130Z,98768
2018-03-06T19:33:35.322Z,98771
2018-03-06T19:36:03.464Z,98763
2018-03-06T19:38:31.599Z,98767
2018-03-06T19:41:00.525Z,98755
2018-03-06T19:43:28.703Z,98766
2018-03-06T19:45:56.845Z,98756
2018-03-06T19:48:25.083Z,98763
2018-03-06T19:50:53.241Z,98759
2018-03-06T19:53:21.391Z,98760
2018-03-06T19:55:49.531Z,98756
2018-03-06T19:58:18.483Z,98762
2018-03-06T20:00:46.638Z,98756
2018-03-06T20:03:14.779Z,98762
2018-03-06T20:05:42.941Z,98754
2018-03-06T20:08:11.865Z,98750
2018-03-06T20:10:40.043Z,98754
2018-03-06T20:13:08.229Z,98754
2018-03-06T20:15:36.391Z,98752
2018-03-06T20:18:05.051Z,98757
2018-03-06T20:20:33.380Z,98745
2018-03-06T20:23:02.313Z,98746
2018-03-06T20:25:36.236Z,98746
2018-03-06T20:28:04.374Z,98744
2018-03-06T20:30:38.956Z,98746
2018-03-06T20:35:48.045Z,98752
2018-03-06T20:38:22.467Z,98748
2018-03-06T20:40:51.435Z,98742
2018-03-06T20:43:19.575Z,98745
2018-03-06T20:45:53.704Z,98741
2018-03-06T20:48:21.884Z,98742
2018-03-06T20:50:50.077Z,98737
2018-03-06T20:53:24.715Z,98743
2018-03-06T20:55:53.627Z,98737
2018-03-06T20:58:21.761Z,98729
2018-03-06T21:00:50.014Z,98727
2018-03-06T21:03:18.155Z,98725
2018-03-06T21:05:46.322Z,98728
2018-03-06T21:08:14.494Z,98716
2018-03-06T21:10:42.679Z,98716
2018-03-06T21:13:10.825Z,98727
2018-03-06T21:15:38.978Z,98724
2018-03-06T21:18:07.913Z,98710
2018-03-06T21:20:36.066Z,98713
2018-03-06T21:23:04.202Z,98716
2018-03-06T21:25:32.358Z,98718
2018-03-06T21:28:00.489Z,98716
2018-03-06T21:30:28.622Z,98706
2018-03-06T21:32:56.847Z,98711
2018-03-06T21:35:24.994Z,98715
2018-03-06T21:37:53.170Z,98708
2018-03-06T21:40:21.311Z,98715
2018-03-06T21:42:49.445Z,98711
2018-03-06T21:45:17.603Z,98705
2018-03-06T21:47:46.414Z,98708
2018-03-06T21:50:14.567Z,98705
2018-03-06T21:52:42.734Z,98705
2018-03-06T21:55:10.887Z,98704
2018-03-06T21:57:39.050Z,98705
2018-03-06T22:00:07.185Z,98702
2018-03-06T22:02:35.831Z,98697
2018-03-06T22:05:03.993Z,98696
2018-03-06T22:07:32.241Z,98688
2018-03-06T22:10:01.144Z,98702
2018-03-06T22:12:30.086Z,98694
2018-03-06T22:14:58.217Z,98691
2018-03-06T22:17:26.350Z,98693
2018-03-06T22:19:54.588Z,98692
2018-03-06T22:22:22.745Z,98685
2018-03-06T22:24:50.881Z,98692
2018-03-06T22:27:19.018Z,98688
2018-03-06T22:29:47.371Z,98686
2018-03-06T22:32:15.510Z,98688
2018-03-06T22:34:44.410Z,98675
2018-03-06T22:37:13.340Z,98681
2018-03-06T22:39:41.497Z,98678
2018-03-06T22:42:09.639Z,98680
2018-03-06T22:44:38.957Z,98687
2018-03-06T22:47:07.090Z,98683
2018-03-06T22:49:35.221Z,98682
2018-03-06T22:52:03.370Z,98678
2018-03-06T22:54:31.527Z,98681
2018-03-06T22:57:00.430Z,98679
2018-03-06T22:59:28.570Z,98675
2018-03-06T23:01:56.727Z,98677
2018-03-06T23:04:24.859Z,98677
2018-03-06T23:06:52.993Z,98666
2018-03-06T23:09:21.141Z,98674
2018-03-06T23:11:49.277Z,98670
2018-03-06T23:14:17.405Z,98672
2018-03-06T23:16:45.635Z,98665
2018-03-06T23:19:13.770Z,98668
2018-03-06T23:21:42.701Z,98672
2018-03-06T23:24:10.883Z,98670
2018-03-06T23:26:39.031Z,98671
2018-03-06T23:29:07.168Z,98669
2018-03-06T23:31:35.394Z,98671
2018-03-06T23:34:03.530Z,98673
2018-03-06T23:36:32.439Z,98669
2018-03-06T23:39:00.593Z,98667
2018-03-06T23:41:28.752Z,98672
2018-03-06T23:43:56.882Z,98663
2018-03-06T23:46:25.043Z,98673
2018-03-06T23:48:53.187Z,98669
2018-03-06T23:51:22.099Z,98673
2018-03-06T23:53:50.272Z,98665
2018-03-06T23:56:18.472Z,98669
2018-03-06T23:58:46.574Z,98662
